Time;durP1;ratioP1;P1;durP2;ratioP2;P2;SDS_P1;SDS_P2;PMS_P1;PMS_P2;Temp;Humidity;BMP_temperature;BMP_pressure;BME280_temperature;BME280_humidity;BME280_pressure;Samples;Min_cycle;Max_cycle;Signal;HPM_P1;HPM_P2
2023/09/18 00:03:26;;;;;;;21.25;12.35;;;;;;;;;;10491068;22;20022;-91
2023/09/18 00:07:29;;;;;;;28.75;14.82;;;;;;;;;;10493145;22;20019;-90
2023/09/18 00:11:33;;;;;;;25.48;14.07;;;;;;;;;;10338178;22;20449;-90
2023/09/18 00:15:54;;;;;;;27.13;13.43;;;;;;;;;;10250101;23;20014;-90
2023/09/18 00:20:09;;;;;;;26.00;14.80;;;;;;;;;;10511241;22;20089;-90
2023/09/18 00:28:45;;;;;;;26.48;14.70;;;;;;;;;;10494007;22;20473;-91
2023/09/18 00:32:55;;;;;;;29.48;15.35;;;;;;;;;;10493713;22;20029;-90
2023/09/18 00:37:12;;;;;;;26.25;14.45;;;;;;;;;;10494605;22;20347;-91
2023/09/18 00:41:14;;;;;;;23.77;14.63;;;;;;;;;;10493513;22;20502;-90
2023/09/18 00:45:18;;;;;;;20.48;12.55;;;;;;;;;;10494051;22;20364;-91
2023/09/18 00:49:25;;;;;;;18.38;11.82;;;;;;;;;;10493893;22;20324;-90
2023/09/18 00:53:45;;;;;;;19.67;11.63;;;;;;;;;;10510612;22;20019;-90
2023/09/18 00:57:48;;;;;;;17.23;11.63;;;;;;;;;;10511309;22;20053;-90
2023/09/18 01:02:01;;;;;;;16.45;10.00;;;;;;;;;;10494043;22;20019;-90
2023/09/18 01:06:21;;;;;;;19.05;11.40;;;;;;;;;;10491745;22;20019;-91
2023/09/18 01:10:30;;;;;;;16.63;10.70;;;;;;;;;;10493859;22;20338;-90
2023/09/18 01:15:38;;;;;;;16.70;11.30;;;;;;;;;;10491834;22;20042;-90
2023/09/18 01:20:06;;;;;;;14.95;10.10;;;;;;;;;;10493959;22;20018;-90
2023/09/18 01:24:31;;;;;;;15.50;10.48;;;;;;;;;;10489833;22;20023;-90
2023/09/18 01:28:44;;;;;;;24.05;13.68;;;;;;;;;;10494634;22;20447;-89
2023/09/18 01:33:05;;;;;;;23.40;13.95;;;;;;;;;;10494231;22;20399;-90
2023/09/18 01:37:20;;;;;;;22.00;13.25;;;;;;;;;;10511367;22;20027;-90
2023/09/18 01:41:27;;;;;;;24.13;14.05;;;;;;;;;;10510755;22;20014;-90
2023/09/18 01:45:43;;;;;;;23.17;14.45;;;;;;;;;;10466414;22;20094;-91
2023/09/18 01:49:59;;;;;;;19.45;13.23;;;;;;;;;;10494595;22;20014;-90
2023/09/18 01:54:11;;;;;;;22.92;13.63;;;;;;;;;;10511528;22;20435;-91
2023/09/18 01:58:47;;;;;;;23.20;14.02;;;;;;;;;;10494352;22;20034;-90
2023/09/18 02:03:07;;;;;;;19.35;11.85;;;;;;;;;;10446964;22;20042;-93
2023/09/18 02:07:10;;;;;;;19.92;13.35;;;;;;;;;;10518812;22;20036;-91
2023/09/18 02:11:13;;;;;;;23.42;13.30;;;;;;;;;;10517387;22;20093;-91
2023/09/18 02:30:14;;;;;;;22.48;13.68;;;;;;;;;;10231947;23;20090;-91
2023/09/18 02:35:08;;;;;;;20.45;13.02;;;;;;;;;;10484124;22;20080;-92
2023/09/18 02:39:12;;;;;;;24.48;14.68;;;;;;;;;;10491794;22;20063;-91
2023/09/18 02:43:15;;;;;;;22.95;14.13;;;;;;;;;;10491858;22;20017;-91
2023/09/18 02:47:33;;;;;;;20.38;13.43;;;;;;;;;;10492109;22;20019;-90
2023/09/18 02:51:37;;;;;;;23.10;13.38;;;;;;;;;;10491953;22;20019;-92
2023/09/18 02:55:44;;;;;;;26.52;15.18;;;;;;;;;;10491712;22;20131;-92
2023/09/18 03:00:06;;;;;;;28.38;15.15;;;;;;;;;;10491405;22;20014;-91
2023/09/18 03:04:18;;;;;;;41.05;18.65;;;;;;;;;;10491470;22;20385;-91
2023/09/18 03:08:21;;;;;;;36.95;16.98;;;;;;;;;;10491744;22;20071;-91
2023/09/18 03:12:34;;;;;;;33.90;18.20;;;;;;;;;;10491329;22;20022;-91
2023/09/18 03:16:43;;;;;;;36.90;18.38;;;;;;;;;;10492444;22;20100;-91
2023/09/18 03:20:46;;;;;;;39.05;17.98;;;;;;;;;;10492489;22;20506;-92
2023/09/18 03:25:02;;;;;;;35.33;18.17;;;;;;;;;;10491955;22;20014;-92
2023/09/18 03:29:16;;;;;;;37.78;19.73;;;;;;;;;;10509122;22;20018;-91
2023/09/18 03:33:33;;;;;;;45.92;20.70;;;;;;;;;;10504874;22;20023;-91
2023/09/18 03:37:39;;;;;;;40.65;19.15;;;;;;;;;;10490984;22;20388;-92
2023/09/18 03:41:41;;;;;;;37.63;18.60;;;;;;;;;;10493595;22;20022;-92
2023/09/18 03:51:18;;;;;;;38.05;19.40;;;;;;;;;;10495139;22;20014;-91
2023/09/18 03:55:31;;;;;;;36.97;18.30;;;;;;;;;;10496137;22;20026;-91
2023/09/18 04:04:10;;;;;;;31.63;16.42;;;;;;;;;;10492338;22;20052;-91
2023/09/18 04:08:14;;;;;;;29.48;16.75;;;;;;;;;;10494880;22;20014;-94
2023/09/18 04:12:29;;;;;;;34.35;16.65;;;;;;;;;;10495973;22;20019;-91
2023/09/18 04:16:37;;;;;;;28.58;16.83;;;;;;;;;;10496476;22;20018;-94
2023/09/18 04:20:39;;;;;;;32.17;17.27;;;;;;;;;;10338584;22;20056;-91
2023/09/18 04:24:44;;;;;;;24.98;15.77;;;;;;;;;;10234024;23;20098;-91
2023/09/18 04:28:56;;;;;;;29.90;16.95;;;;;;;;;;10233213;23;20048;-91
2023/09/18 04:32:58;;;;;;;31.75;19.10;;;;;;;;;;10337523;22;20057;-93
2023/09/18 04:37:25;;;;;;;73.28;40.67;;;;;;;;;;10235062;22;20025;-92
2023/09/18 04:41:30;;;;;;;43.72;27.55;;;;;;;;;;10231790;22;20473;-91
2023/09/18 04:45:39;;;;;;;24.05;14.52;;;;;;;;;;10249549;23;20017;-91
2023/09/18 04:49:45;;;;;;;29.05;18.88;;;;;;;;;;10233595;23;20314;-92
2023/09/18 04:54:01;;;;;;;24.42;16.23;;;;;;;;;;10235405;23;20041;-92
2023/09/18 04:58:15;;;;;;;24.58;16.95;;;;;;;;;;10236141;23;20032;-91
2023/09/18 05:02:20;;;;;;;23.15;15.50;;;;;;;;;;10235285;23;20013;-92
2023/09/18 05:06:23;;;;;;;21.50;15.02;;;;;;;;;;10236279;23;20028;-92
2023/09/18 05:10:27;;;;;;;20.88;13.77;;;;;;;;;;10235312;23;20031;-92
2023/09/18 05:14:31;;;;;;;22.80;16.02;;;;;;;;;;10238889;23;20075;-95
2023/09/18 05:18:37;;;;;;;25.08;17.10;;;;;;;;;;10240723;23;20330;-95
2023/09/18 05:27:00;;;;;;;22.00;16.10;;;;;;;;;;10243587;22;20029;-96
2023/09/18 05:31:05;;;;;;;22.75;14.30;;;;;;;;;;10227387;23;20021;-93
2023/09/18 05:35:10;;;;;;;17.52;13.25;;;;;;;;;;10243271;23;20027;-94
2023/09/18 05:39:13;;;;;;;17.40;12.48;;;;;;;;;;10238608;23;20445;-93
2023/09/18 05:43:22;;;;;;;16.02;12.02;;;;;;;;;;10241761;23;20022;-94
2023/09/18 05:56:04;;;;;;;14.75;11.30;;;;;;;;;;10509776;22;20584;-93
2023/09/18 06:00:12;;;;;;;12.77;10.10;;;;;;;;;;10496496;22;20443;-93
2023/09/18 06:04:16;;;;;;;13.60;9.45;;;;;;;;;;10501844;22;20331;-93
2023/09/18 06:08:36;;;;;;;11.70;9.32;;;;;;;;;;10524842;22;20019;-92
2023/09/18 06:12:40;;;;;;;11.57;8.57;;;;;;;;;;10515725;22;20393;-93
2023/09/18 06:16:43;;;;;;;14.40;8.63;;;;;;;;;;10496893;22;20030;-92
2023/09/18 06:20:52;;;;;;;17.00;8.68;;;;;;;;;;10499080;22;20029;-93
2023/09/18 06:25:06;;;;;;;12.32;11.13;;;;;;;;;;10497773;22;20023;-93
2023/09/18 06:29:10;;;;;;;18.13;14.07;;;;;;;;;;10512697;22;20116;-93
2023/09/18 06:33:13;;;;;;;12.27;6.95;;;;;;;;;;10493189;22;20021;-93
2023/09/18 06:37:21;;;;;;;22.00;8.75;;;;;;;;;;10467522;22;20023;-94
2023/09/18 06:41:27;;;;;;;29.48;9.93;;;;;;;;;;10521870;22;20018;-94
2023/09/18 06:45:33;;;;;;;10.02;5.75;;;;;;;;;;10511686;22;20019;-94
2023/09/18 06:49:51;;;;;;;7.05;5.90;;;;;;;;;;10463918;22;20021;-95
2023/09/18 06:58:57;;;;;;;10.10;6.32;;;;;;;;;;10516443;22;20061;-92
2023/09/18 07:03:05;;;;;;;10.30;6.00;;;;;;;;;;10481726;22;20022;-95
2023/09/18 07:16:41;;;;;;;22.35;7.10;;;;;;;;;;10454936;22;20015;-93
2023/09/18 07:20:47;;;;;;;13.68;6.18;;;;;;;;;;10497509;22;20026;-91
2023/09/18 07:25:12;;;;;;;7.18;6.00;;;;;;;;;;10230625;22;20025;-92
2023/09/18 07:29:20;;;;;;;9.57;6.00;;;;;;;;;;10514986;22;20331;-95
2023/09/18 07:39:05;;;;;;;8.45;5.68;;;;;;;;;;10407701;22;20462;-95
2023/09/18 07:43:19;;;;;;;7.78;6.05;;;;;;;;;;10488119;22;20033;-93
2023/09/18 07:52:27;;;;;;;7.75;6.30;;;;;;;;;;10310233;22;20449;-93
2023/09/18 07:56:33;;;;;;;9.40;6.32;;;;;;;;;;10413825;22;20053;-94
2023/09/18 08:05:57;;;;;;;9.30;5.65;;;;;;;;;;10205956;22;20065;-94
2023/09/18 08:10:00;;;;;;;9.02;5.93;;;;;;;;;;10407403;22;20476;-96
2023/09/18 08:14:03;;;;;;;11.10;7.60;;;;;;;;;;10386687;22;20007;-95
2023/09/18 08:34:33;;;;;;;7.80;6.37;;;;;;;;;;10369001;22;20041;-95
2023/09/18 08:53:44;;;;;;;7.43;6.63;;;;;;;;;;10465803;22;20031;-95
2023/09/18 08:58:40;;;;;;;8.25;6.47;;;;;;;;;;10443975;22;20080;-95
2023/09/18 09:21:53;;;;;;;14.10;7.50;;;;;;;;;;10502331;22;20023;-92
2023/09/18 10:38:43;;;;;;;7.13;6.07;;;;;;;;;;10525790;22;20284;-96
2023/09/18 12:12:31;;;;;;;;;;;;;;;;;;;;;
2023/09/18 12:17:42;;;;;;;12.63;7.70;;;;;;;;;;10407652;22;20399;-94
2023/09/18 13:27:55;;;;;;;10.57;6.82;;;;;;;;;;10475701;22;20011;-94
2023/09/18 14:24:57;;;;;;;11.10;7.32;;;;;;;;;;10501987;22;20026;-96
2023/09/18 14:29:02;;;;;;;10.05;7.45;;;;;;;;;;10486779;22;20035;-96
2023/09/18 14:33:55;;;;;;;10.02;8.15;;;;;;;;;;10499124;22;20049;-95
2023/09/18 14:38:19;;;;;;;10.32;7.55;;;;;;;;;;10504360;22;20022;-94
2023/09/18 14:42:23;;;;;;;7.88;6.90;;;;;;;;;;10531300;22;20019;-96
2023/09/18 14:46:30;;;;;;;8.48;6.85;;;;;;;;;;10520901;22;20094;-96
2023/09/18 14:50:39;;;;;;;9.35;7.68;;;;;;;;;;10528274;22;20015;-95
2023/09/18 14:54:46;;;;;;;10.98;7.60;;;;;;;;;;10499152;22;20002;-96
2023/09/18 15:03:26;;;;;;;8.88;6.75;;;;;;;;;;10459679;22;20053;-96
2023/09/18 15:07:55;;;;;;;8.65;6.43;;;;;;;;;;10484297;22;20022;-95
2023/09/18 15:12:42;;;;;;;8.57;7.22;;;;;;;;;;10431796;22;20022;-96
2023/09/18 15:18:22;;;;;;;8.50;6.45;;;;;;;;;;10428073;22;20419;-95
2023/09/18 15:23:25;;;;;;;12.82;6.78;;;;;;;;;;10518610;22;20098;-96
2023/09/18 15:28:21;;;;;;;10.10;6.80;;;;;;;;;;10496817;22;20030;-96
2023/09/18 15:32:55;;;;;;;9.40;6.38;;;;;;;;;;10499180;22;20064;-96
2023/09/18 15:37:03;;;;;;;10.20;6.50;;;;;;;;;;10520347;22;20021;-96
2023/09/18 15:51:19;;;;;;;9.80;6.32;;;;;;;;;;10448153;22;20042;-96
2023/09/18 15:55:37;;;;;;;8.80;6.78;;;;;;;;;;10443940;22;20023;-96
2023/09/18 16:04:11;;;;;;;12.15;7.68;;;;;;;;;;10444706;22;20030;-95
2023/09/18 16:08:18;;;;;;;8.85;6.80;;;;;;;;;;10446884;22;20045;-94
2023/09/18 16:12:37;;;;;;;10.70;6.95;;;;;;;;;;10468456;22;20094;-96
2023/09/18 16:38:18;;;;;;;14.35;9.13;;;;;;;;;;10482603;22;20033;31
2023/09/18 16:42:22;;;;;;;10.35;8.15;;;;;;;;;;10298015;22;20040;-95
2023/09/18 17:02:37;;;;;;;13.77;9.50;;;;;;;;;;10489860;22;20033;-95
2023/09/18 17:45:59;;;;;;;12.30;8.43;;;;;;;;;;10376957;22;20045;-93
2023/09/18 18:44:53;;;;;;;14.43;9.50;;;;;;;;;;10378308;22;20094;-93
2023/09/18 18:50:06;;;;;;;14.25;9.50;;;;;;;;;;10491629;22;20015;-93
2023/09/18 19:00:39;;;;;;;;;;;;;;;;;;;;;
2023/09/18 19:26:50;;;;;;;;;;;;;;;;;;;;;
2023/09/18 19:37:00;;;;;;;16.27;10.13;;;;;;;;;;10386798;22;20037;-92
2023/09/18 20:33:27;;;;;;;13.10;9.52;;;;;;;;;;10309207;23;20088;-93
2023/09/18 20:43:29;;;;;;;15.85;9.90;;;;;;;;;;10187351;23;20025;-94
2023/09/18 20:57:11;;;;;;;13.82;10.32;;;;;;;;;;10494031;22;20018;-93
2023/09/18 21:18:01;;;;;;;14.82;10.40;;;;;;;;;;10386571;22;20066;-92
2023/09/18 21:22:47;;;;;;;16.42;10.95;;;;;;;;;;10386526;22;20024;-92
2023/09/18 21:48:33;;;;;;;18.65;11.38;;;;;;;;;;10399232;22;20016;-92
2023/09/18 21:52:36;;;;;;;16.45;11.68;;;;;;;;;;10416703;22;20024;-93
2023/09/18 21:56:39;;;;;;;17.00;11.15;;;;;;;;;;10413428;22;20031;-92
2023/09/18 22:00:44;;;;;;;16.85;11.48;;;;;;;;;;10436002;22;20019;-94
2023/09/18 22:26:26;;;;;;;18.48;12.57;;;;;;;;;;10338757;22;20154;-93
2023/09/18 22:36:19;;;;;;;18.55;12.25;;;;;;;;;;10336539;23;20047;-93
2023/09/18 22:40:45;;;;;;;19.90;12.45;;;;;;;;;;10338943;22;20016;-93
2023/09/18 23:05:58;;;;;;;22.40;13.90;;;;;;;;;;10200923;23;20025;-93
2023/09/18 23:15:05;;;;;;;23.02;15.35;;;;;;;;;;10164937;23;20040;-92
2023/09/18 23:42:03;;;;;;;21.17;14.30;;;;;;;;;;10222202;23;20396;-92
2023/09/18 23:52:29;;;;;;;19.40;13.75;;;;;;;;;;10233284;23;20045;-92
2023/09/18 23:56:38;;;;;;;19.67;13.85;;;;;;;;;;10144774;23;20033;-91
